sensor_id;sensor_type;location;lat;lon;timestamp;P1;durP1;ratioP1;P2;durP2;ratioP2
47367;SDS011;34646;47.964;7.982;2023-01-15T00:02:46;2.43;;;0.90;;
47367;SDS011;34646;47.964;7.982;2023-01-15T00:08:47;1.70;;;1.00;;
47367;SDS011;34646;47.964;7.982;2023-01-15T00:14:48;2.22;;;1.00;;
47367;SDS011;34646;47.964;7.982;2023-01-15T00:20:49;2.60;;;0.90;;
47367;SDS011;34646;47.964;7.982;2023-01-15T00:26:58;2.20;;;1.08;;
47367;SDS011;34646;47.964;7.982;2023-01-15T00:33:20;2.63;;;1.10;;
47367;SDS011;34646;47.964;7.982;2023-01-15T00:39:22;1.65;;;0.93;;
47367;SDS011;34646;47.964;7.982;2023-01-15T00:45:23;1.95;;;1.10;;
47367;SDS011;34646;47.964;7.982;2023-01-15T00:51:24;1.93;;;1.07;;
47367;SDS011;34646;47.964;7.982;2023-01-15T00:57:25;3.60;;;0.97;;
47367;SDS011;34646;47.964;7.982;2023-01-15T01:03:26;1.83;;;0.93;;
47367;SDS011;34646;47.964;7.982;2023-01-15T01:09:27;1.70;;;0.83;;
47367;SDS011;34646;47.964;7.982;2023-01-15T01:21:32;1.95;;;0.80;;
47367;SDS011;34646;47.964;7.982;2023-01-15T01:27:33;1.77;;;0.70;;
47367;SDS011;34646;47.964;7.982;2023-01-15T01:33:34;2.70;;;0.80;;
47367;SDS011;34646;47.964;7.982;2023-01-15T01:39:35;3.60;;;1.00;;
47367;SDS011;34646;47.964;7.982;2023-01-15T01:45:36;3.83;;;1.07;;
47367;SDS011;34646;47.964;7.982;2023-01-15T01:51:38;2.00;;;0.90;;
47367;SDS011;34646;47.964;7.982;2023-01-15T01:57:44;1.92;;;0.82;;
47367;SDS011;34646;47.964;7.982;2023-01-15T02:03:46;2.63;;;1.02;;
47367;SDS011;34646;47.964;7.982;2023-01-15T02:09:47;1.30;;;0.70;;
47367;SDS011;34646;47.964;7.982;2023-01-15T02:28:43;2.33;;;0.73;;
47367;SDS011;34646;47.964;7.982;2023-01-15T02:34:49;1.85;;;0.80;;
47367;SDS011;34646;47.964;7.982;2023-01-15T02:40:55;1.67;;;0.85;;
47367;SDS011;34646;47.964;7.982;2023-01-15T02:47:00;2.30;;;0.80;;
47367;SDS011;34646;47.964;7.982;2023-01-15T02:53:06;2.75;;;1.00;;
47367;SDS011;34646;47.964;7.982;2023-01-15T02:59:13;2.60;;;1.00;;
47367;SDS011;34646;47.964;7.982;2023-01-15T03:05:29;2.67;;;1.15;;
47367;SDS011;34646;47.964;7.982;2023-01-15T03:11:37;2.53;;;0.93;;
47367;SDS011;34646;47.964;7.982;2023-01-15T03:17:53;1.20;;;0.57;;
47367;SDS011;34646;47.964;7.982;2023-01-15T03:23:55;1.35;;;0.57;;
47367;SDS011;34646;47.964;7.982;2023-01-15T03:30:08;1.50;;;0.52;;
47367;SDS011;34646;47.964;7.982;2023-01-15T03:36:14;1.52;;;0.80;;
47367;SDS011;34646;47.964;7.982;2023-01-15T03:42:28;1.67;;;0.60;;
47367;SDS011;34646;47.964;7.982;2023-01-15T03:48:58;1.92;;;0.80;;
47367;SDS011;34646;47.964;7.982;2023-01-15T03:55:14;1.67;;;0.95;;
47367;SDS011;34646;47.964;7.982;2023-01-15T04:01:35;1.20;;;0.55;;
47367;SDS011;34646;47.964;7.982;2023-01-15T04:07:38;0.80;;;0.50;;
47367;SDS011;34646;47.964;7.982;2023-01-15T04:13:41;1.10;;;0.65;;
47367;SDS011;34646;47.964;7.982;2023-01-15T04:19:52;1.20;;;0.53;;
47367;SDS011;34646;47.964;7.982;2023-01-15T04:25:53;0.80;;;0.50;;
47367;SDS011;34646;47.964;7.982;2023-01-15T04:31:54;1.00;;;0.60;;
47367;SDS011;34646;47.964;7.982;2023-01-15T04:37:59;1.60;;;0.80;;
47367;SDS011;34646;47.964;7.982;2023-01-15T04:44:00;0.65;;;0.50;;
47367;SDS011;34646;47.964;7.982;2023-01-15T04:50:07;2.33;;;0.57;;
47367;SDS011;34646;47.964;7.982;2023-01-15T04:56:09;1.33;;;0.63;;
47367;SDS011;34646;47.964;7.982;2023-01-15T05:02:10;1.43;;;0.70;;
47367;SDS011;34646;47.964;7.982;2023-01-15T05:08:11;1.83;;;0.67;;
47367;SDS011;34646;47.964;7.982;2023-01-15T05:14:13;4.70;;;0.50;;
47367;SDS011;34646;47.964;7.982;2023-01-15T05:20:14;1.40;;;0.57;;
47367;SDS011;34646;47.964;7.982;2023-01-15T05:26:15;1.83;;;0.60;;
47367;SDS011;34646;47.964;7.982;2023-01-15T05:32:16;1.58;;;0.82;;
47367;SDS011;34646;47.964;7.982;2023-01-15T05:38:17;0.90;;;0.50;;
47367;SDS011;34646;47.964;7.982;2023-01-15T05:44:19;0.90;;;0.50;;
47367;SDS011;34646;47.964;7.982;2023-01-15T05:50:25;1.02;;;0.50;;
47367;SDS011;34646;47.964;7.982;2023-01-15T05:56:26;0.97;;;0.50;;
47367;SDS011;34646;47.964;7.982;2023-01-15T06:02:27;1.57;;;0.60;;
47367;SDS011;34646;47.964;7.982;2023-01-15T06:08:28;1.77;;;0.70;;
47367;SDS011;34646;47.964;7.982;2023-01-15T06:14:29;1.23;;;0.53;;
47367;SDS011;34646;47.964;7.982;2023-01-15T06:20:30;0.83;;;0.50;;
47367;SDS011;34646;47.964;7.982;2023-01-15T06:26:31;1.37;;;0.60;;
47367;SDS011;34646;47.964;7.982;2023-01-15T06:32:32;1.37;;;0.70;;
47367;SDS011;34646;47.964;7.982;2023-01-15T06:38:33;0.80;;;0.50;;
47367;SDS011;34646;47.964;7.982;2023-01-15T06:44:35;1.05;;;0.50;;
47367;SDS011;34646;47.964;7.982;2023-01-15T06:50:54;0.82;;;0.40;;
47367;SDS011;34646;47.964;7.982;2023-01-15T06:56:56;2.03;;;0.65;;
47367;SDS011;34646;47.964;7.982;2023-01-15T07:03:00;0.70;;;0.40;;
47367;SDS011;34646;47.964;7.982;2023-01-15T07:09:01;2.83;;;0.60;;
47367;SDS011;34646;47.964;7.982;2023-01-15T07:15:02;1.10;;;0.60;;
47367;SDS011;34646;47.964;7.982;2023-01-15T07:21:03;0.73;;;0.50;;
47367;SDS011;34646;47.964;7.982;2023-01-15T07:27:05;0.70;;;0.40;;
47367;SDS011;34646;47.964;7.982;2023-01-15T07:33:06;0.83;;;0.47;;
47367;SDS011;34646;47.964;7.982;2023-01-15T07:39:08;0.77;;;0.40;;
47367;SDS011;34646;47.964;7.982;2023-01-15T07:45:09;1.10;;;0.40;;
47367;SDS011;34646;47.964;7.982;2023-01-15T07:51:29;0.75;;;0.43;;
47367;SDS011;34646;47.964;7.982;2023-01-15T07:57:30;0.90;;;0.40;;
47367;SDS011;34646;47.964;7.982;2023-01-15T08:03:31;2.50;;;0.60;;
47367;SDS011;34646;47.964;7.982;2023-01-15T08:09:33;2.43;;;1.03;;
47367;SDS011;34646;47.964;7.982;2023-01-15T08:15:37;1.90;;;0.50;;
47367;SDS011;34646;47.964;7.982;2023-01-15T08:21:38;6.10;;;0.95;;
47367;SDS011;34646;47.964;7.982;2023-01-15T08:27:39;1.40;;;0.40;;
47367;SDS011;34646;47.964;7.982;2023-01-15T08:33:40;3.10;;;0.53;;
47367;SDS011;34646;47.964;7.982;2023-01-15T08:39:42;2.10;;;0.40;;
47367;SDS011;34646;47.964;7.982;2023-01-15T08:45:43;2.00;;;0.40;;
47367;SDS011;34646;47.964;7.982;2023-01-15T08:51:44;3.30;;;0.50;;
47367;SDS011;34646;47.964;7.982;2023-01-15T08:57:48;3.05;;;0.50;;
47367;SDS011;34646;47.964;7.982;2023-01-15T09:03:50;2.97;;;0.60;;
47367;SDS011;34646;47.964;7.982;2023-01-15T09:09:51;6.00;;;0.90;;
47367;SDS011;34646;47.964;7.982;2023-01-15T09:15:53;8.63;;;0.80;;
47367;SDS011;34646;47.964;7.982;2023-01-15T09:21:54;8.97;;;2.03;;
47367;SDS011;34646;47.964;7.982;2023-01-15T09:27:55;7.40;;;2.03;;
47367;SDS011;34646;47.964;7.982;2023-01-15T09:33:55;13.40;;;2.43;;
47367;SDS011;34646;47.964;7.982;2023-01-15T09:39:56;10.10;;;2.27;;
47367;SDS011;34646;47.964;7.982;2023-01-15T09:46:04;7.83;;;1.80;;
47367;SDS011;34646;47.964;7.982;2023-01-15T09:52:36;8.65;;;2.00;;
47367;SDS011;34646;47.964;7.982;2023-01-15T09:58:46;10.93;;;2.03;;
47367;SDS011;34646;47.964;7.982;2023-01-15T10:04:48;8.20;;;2.03;;
47367;SDS011;34646;47.964;7.982;2023-01-15T10:17:21;11.30;;;2.20;;
47367;SDS011;34646;47.964;7.982;2023-01-15T10:29:45;8.25;;;2.08;;
47367;SDS011;34646;47.964;7.982;2023-01-15T10:35:59;8.27;;;1.90;;
47367;SDS011;34646;47.964;7.982;2023-01-15T10:42:09;5.40;;;1.80;;
47367;SDS011;34646;47.964;7.982;2023-01-15T10:54:35;6.53;;;3.20;;
47367;SDS011;34646;47.964;7.982;2023-01-15T11:00:39;8.90;;;2.40;;
47367;SDS011;34646;47.964;7.982;2023-01-15T11:06:40;7.43;;;2.30;;
47367;SDS011;34646;47.964;7.982;2023-01-15T11:12:51;19.20;;;9.10;;
47367;SDS011;34646;47.964;7.982;2023-01-15T11:19:19;32.58;;;17.23;;
47367;SDS011;34646;47.964;7.982;2023-01-15T11:25:37;29.05;;;15.25;;
47367;SDS011;34646;47.964;7.982;2023-01-15T11:31:46;28.10;;;13.15;;
47367;SDS011;34646;47.964;7.982;2023-01-15T11:37:47;29.17;;;13.97;;
47367;SDS011;34646;47.964;7.982;2023-01-15T11:43:55;26.47;;;11.87;;
47367;SDS011;34646;47.964;7.982;2023-01-15T11:50:16;21.35;;;10.80;;
47367;SDS011;34646;47.964;7.982;2023-01-15T11:56:36;21.30;;;10.90;;
47367;SDS011;34646;47.964;7.982;2023-01-15T12:02:41;18.92;;;9.35;;
47367;SDS011;34646;47.964;7.982;2023-01-15T12:08:50;17.23;;;8.43;;
47367;SDS011;34646;47.964;7.982;2023-01-15T12:15:03;21.38;;;8.60;;
47367;SDS011;34646;47.964;7.982;2023-01-15T12:21:24;19.42;;;8.43;;
47367;SDS011;34646;47.964;7.982;2023-01-15T12:28:01;19.65;;;7.32;;
47367;SDS011;34646;47.964;7.982;2023-01-15T12:40:27;15.07;;;6.45;;
47367;SDS011;34646;47.964;7.982;2023-01-15T12:46:31;22.92;;;6.97;;
47367;SDS011;34646;47.964;7.982;2023-01-15T12:52:36;14.90;;;5.88;;
47367;SDS011;34646;47.964;7.982;2023-01-15T12:58:50;20.65;;;6.65;;
47367;SDS011;34646;47.964;7.982;2023-01-15T13:05:17;19.42;;;6.53;;
47367;SDS011;34646;47.964;7.982;2023-01-15T13:11:21;20.13;;;5.80;;
47367;SDS011;34646;47.964;7.982;2023-01-15T13:17:28;20.60;;;6.00;;
47367;SDS011;34646;47.964;7.982;2023-01-15T13:29:45;19.00;;;6.03;;
47367;SDS011;34646;47.964;7.982;2023-01-15T13:35:55;12.27;;;4.75;;
47367;SDS011;34646;47.964;7.982;2023-01-15T13:42:03;8.52;;;4.25;;
47367;SDS011;34646;47.964;7.982;2023-01-15T13:54:26;11.87;;;4.60;;
47367;SDS011;34646;47.964;7.982;2023-01-15T14:06:37;13.60;;;4.80;;
47367;SDS011;34646;47.964;7.982;2023-01-15T14:25:19;12.48;;;4.22;;
47367;SDS011;34646;47.964;7.982;2023-01-15T14:31:22;11.73;;;4.00;;
47367;SDS011;34646;47.964;7.982;2023-01-15T14:37:30;11.77;;;3.80;;
47367;SDS011;34646;47.964;7.982;2023-01-15T14:43:46;8.35;;;3.17;;
47367;SDS011;34646;47.964;7.982;2023-01-15T14:49:57;10.68;;;3.80;;
47367;SDS011;34646;47.964;7.982;2023-01-15T14:56:30;10.02;;;3.15;;
47367;SDS011;34646;47.964;7.982;2023-01-15T15:02:40;9.50;;;3.28;;
47367;SDS011;34646;47.964;7.982;2023-01-15T15:08:46;9.00;;;3.65;;
47367;SDS011;34646;47.964;7.982;2023-01-15T15:14:52;6.63;;;3.50;;
47367;SDS011;34646;47.964;7.982;2023-01-15T15:27:42;5.13;;;2.55;;
47367;SDS011;34646;47.964;7.982;2023-01-15T15:33:43;5.90;;;2.60;;
47367;SDS011;34646;47.964;7.982;2023-01-15T15:40:04;13.27;;;2.90;;
47367;SDS011;34646;47.964;7.982;2023-01-15T15:46:28;8.90;;;2.63;;
47367;SDS011;34646;47.964;7.982;2023-01-15T15:52:49;9.02;;;2.72;;
47367;SDS011;34646;47.964;7.982;2023-01-15T15:58:50;10.02;;;2.60;;
47367;SDS011;34646;47.964;7.982;2023-01-15T16:04:55;7.87;;;2.53;;
47367;SDS011;34646;47.964;7.982;2023-01-15T16:10:59;7.90;;;2.40;;
47367;SDS011;34646;47.964;7.982;2023-01-15T16:17:03;4.60;;;2.13;;
47367;SDS011;34646;47.964;7.982;2023-01-15T16:23:04;5.43;;;2.40;;
47367;SDS011;34646;47.964;7.982;2023-01-15T16:29:12;10.47;;;2.67;;
47367;SDS011;34646;47.964;7.982;2023-01-15T16:35:18;6.32;;;2.10;;
47367;SDS011;34646;47.964;7.982;2023-01-15T16:41:25;8.73;;;2.35;;
47367;SDS011;34646;47.964;7.982;2023-01-15T16:47:34;7.70;;;2.33;;
47367;SDS011;34646;47.964;7.982;2023-01-15T16:53:37;4.82;;;2.00;;
47367;SDS011;34646;47.964;7.982;2023-01-15T17:05:56;6.28;;;1.85;;
47367;SDS011;34646;47.964;7.982;2023-01-15T17:12:05;3.25;;;1.60;;
47367;SDS011;34646;47.964;7.982;2023-01-15T17:18:18;4.03;;;1.73;;
47367;SDS011;34646;47.964;7.982;2023-01-15T17:24:25;7.55;;;1.40;;
47367;SDS011;34646;47.964;7.982;2023-01-15T17:30:26;7.00;;;1.63;;
47367;SDS011;34646;47.964;7.982;2023-01-15T17:36:30;7.45;;;1.75;;
47367;SDS011;34646;47.964;7.982;2023-01-15T17:42:33;6.55;;;1.73;;
47367;SDS011;34646;47.964;7.982;2023-01-15T17:48:34;14.07;;;1.70;;
47367;SDS011;34646;47.964;7.982;2023-01-15T17:54:35;3.60;;;1.33;;
47367;SDS011;34646;47.964;7.982;2023-01-15T18:00:55;4.93;;;1.23;;
47367;SDS011;34646;47.964;7.982;2023-01-15T18:07:15;16.13;;;1.83;;
47367;SDS011;34646;47.964;7.982;2023-01-15T18:13:18;12.27;;;3.97;;
47367;SDS011;34646;47.964;7.982;2023-01-15T18:19:19;7.77;;;3.20;;
47367;SDS011;34646;47.964;7.982;2023-01-15T18:25:20;9.73;;;2.88;;
47367;SDS011;34646;47.964;7.982;2023-01-15T18:31:21;11.93;;;2.60;;
47367;SDS011;34646;47.964;7.982;2023-01-15T18:37:22;6.03;;;2.40;;
47367;SDS011;34646;47.964;7.982;2023-01-15T18:43:23;7.73;;;2.20;;
47367;SDS011;34646;47.964;7.982;2023-01-15T18:49:43;6.22;;;2.20;;
47367;SDS011;34646;47.964;7.982;2023-01-15T18:55:45;7.72;;;1.90;;
47367;SDS011;34646;47.964;7.982;2023-01-15T19:01:46;7.70;;;2.47;;
47367;SDS011;34646;47.964;7.982;2023-01-15T19:07:47;9.10;;;2.58;;
47367;SDS011;34646;47.964;7.982;2023-01-15T19:13:48;30.33;;;21.38;;
47367;SDS011;34646;47.964;7.982;2023-01-15T19:20:10;10.83;;;4.80;;
47367;SDS011;34646;47.964;7.982;2023-01-15T19:26:13;10.05;;;4.13;;
47367;SDS011;34646;47.964;7.982;2023-01-15T19:32:14;9.35;;;4.85;;
47367;SDS011;34646;47.964;7.982;2023-01-15T19:38:15;6.00;;;3.60;;
47367;SDS011;34646;47.964;7.982;2023-01-15T19:44:16;8.97;;;3.53;;
47367;SDS011;34646;47.964;7.982;2023-01-15T19:50:36;7.85;;;3.80;;
47367;SDS011;34646;47.964;7.982;2023-01-15T19:56:39;8.00;;;3.90;;
47367;SDS011;34646;47.964;7.982;2023-01-15T20:02:41;7.43;;;3.58;;
47367;SDS011;34646;47.964;7.982;2023-01-15T20:08:43;9.43;;;4.03;;
47367;SDS011;34646;47.964;7.982;2023-01-15T20:14:44;14.40;;;3.93;;
47367;SDS011;34646;47.964;7.982;2023-01-15T20:20:45;12.23;;;3.40;;
47367;SDS011;34646;47.964;7.982;2023-01-15T20:26:46;8.10;;;3.42;;
47367;SDS011;34646;47.964;7.982;2023-01-15T20:32:46;9.03;;;3.37;;
47367;SDS011;34646;47.964;7.982;2023-01-15T20:38:48;6.88;;;3.67;;
47367;SDS011;34646;47.964;7.982;2023-01-15T20:44:49;9.07;;;3.57;;
47367;SDS011;34646;47.964;7.982;2023-01-15T20:50:53;12.52;;;3.53;;
47367;SDS011;34646;47.964;7.982;2023-01-15T20:57:00;7.30;;;3.20;;
47367;SDS011;34646;47.964;7.982;2023-01-15T21:03:01;8.87;;;3.83;;
47367;SDS011;34646;47.964;7.982;2023-01-15T21:09:02;14.23;;;4.57;;
47367;SDS011;34646;47.964;7.982;2023-01-15T21:15:03;18.37;;;4.43;;
47367;SDS011;34646;47.964;7.982;2023-01-15T21:21:08;11.68;;;4.03;;
47367;SDS011;34646;47.964;7.982;2023-01-15T21:27:09;13.30;;;4.00;;
47367;SDS011;34646;47.964;7.982;2023-01-15T21:33:10;29.73;;;9.17;;
47367;SDS011;34646;47.964;7.982;2023-01-15T21:39:13;20.05;;;7.47;;
47367;SDS011;34646;47.964;7.982;2023-01-15T21:45:14;17.55;;;5.78;;
47367;SDS011;34646;47.964;7.982;2023-01-15T21:51:16;16.10;;;6.07;;
47367;SDS011;34646;47.964;7.982;2023-01-15T21:57:17;19.73;;;5.13;;
47367;SDS011;34646;47.964;7.982;2023-01-15T22:03:18;16.73;;;5.50;;
47367;SDS011;34646;47.964;7.982;2023-01-15T22:09:19;14.97;;;5.43;;
47367;SDS011;34646;47.964;7.982;2023-01-15T22:15:21;17.17;;;4.85;;
47367;SDS011;34646;47.964;7.982;2023-01-15T22:21:22;15.40;;;5.07;;
47367;SDS011;34646;47.964;7.982;2023-01-15T22:27:23;16.17;;;4.50;;
47367;SDS011;34646;47.964;7.982;2023-01-15T22:33:25;16.13;;;4.55;;
47367;SDS011;34646;47.964;7.982;2023-01-15T22:39:26;13.20;;;4.17;;
47367;SDS011;34646;47.964;7.982;2023-01-15T22:45:27;18.25;;;4.20;;
47367;SDS011;34646;47.964;7.982;2023-01-15T22:51:29;12.17;;;3.97;;
47367;SDS011;34646;47.964;7.982;2023-01-15T22:57:30;10.43;;;3.53;;
47367;SDS011;34646;47.964;7.982;2023-01-15T23:03:33;10.48;;;3.80;;
47367;SDS011;34646;47.964;7.982;2023-01-15T23:09:34;9.40;;;3.80;;
47367;SDS011;34646;47.964;7.982;2023-01-15T23:15:35;10.30;;;3.37;;
47367;SDS011;34646;47.964;7.982;2023-01-15T23:21:37;8.90;;;3.20;;
47367;SDS011;34646;47.964;7.982;2023-01-15T23:27:38;12.30;;;3.88;;
47367;SDS011;34646;47.964;7.982;2023-01-15T23:33:39;8.90;;;3.80;;
47367;SDS011;34646;47.964;7.982;2023-01-15T23:39:40;10.70;;;3.77;;
47367;SDS011;34646;47.964;7.982;2023-01-15T23:45:41;8.77;;;3.10;;
47367;SDS011;34646;47.964;7.982;2023-01-15T23:52:00;8.77;;;3.13;;
47367;SDS011;34646;47.964;7.982;2023-01-15T23:58:01;8.48;;;3.63;;
